createdAt,value
2022-08-11T00:02:01.582Z,21.05
2022-08-11T00:04:39.364Z,22.48
2022-08-11T00:07:08.564Z,16.77
2022-08-11T00:09:40.110Z,18.38
2022-08-11T00:12:15.634Z,18.65
2022-08-11T00:14:46.702Z,26.88
2022-08-11T00:17:17.216Z,22.58
2022-08-11T00:20:12.931Z,14.85
2022-08-11T00:22:40.181Z,17.00
2022-08-11T00:25:15.309Z,18.55
2022-08-11T00:27:44.188Z,15.10
2022-08-11T00:30:15.605Z,13.63
2022-08-11T00:32:56.198Z,11.20
2022-08-11T00:35:51.317Z,10.02
2022-08-11T00:38:19.305Z,9.55
2022-08-11T00:40:58.394Z,9.30
2022-08-11T00:43:51.683Z,6.82
2022-08-11T00:46:36.558Z,3.75
2022-08-11T00:49:17.882Z,4.38
2022-08-11T00:52:12.793Z,5.00
2022-08-11T00:55:34.853Z,5.03
2022-08-11T00:59:01.297Z,3.65
2022-08-11T01:01:48.385Z,3.15
2022-08-11T01:04:56.124Z,3.58
2022-08-11T01:08:29.065Z,3.13
2022-08-11T01:11:55.590Z,4.43
2022-08-11T01:15:12.174Z,3.47
2022-08-11T01:18:18.829Z,6.40
2022-08-11T01:21:42.521Z,2.25
2022-08-11T01:24:58.830Z,2.53
2022-08-11T01:28:17.763Z,3.80
2022-08-11T01:31:32.347Z,2.13
2022-08-11T01:34:50.925Z,2.97
2022-08-11T01:38:22.774Z,4.22
2022-08-11T01:41:48.017Z,2.45
2022-08-11T01:45:13.349Z,2.47
2022-08-11T01:47:54.337Z,2.47
2022-08-11T01:50:39.145Z,3.35
2022-08-11T01:53:19.485Z,2.45
2022-08-11T01:56:02.702Z,3.55
2022-08-11T01:58:44.190Z,7.45
2022-08-11T02:03:59.407Z,2.65
2022-08-11T02:06:56.122Z,2.67
2022-08-11T02:09:49.265Z,3.70
2022-08-11T02:12:42.176Z,3.20
2022-08-11T02:15:26.442Z,2.95
2022-08-11T02:18:07.222Z,2.92
2022-08-11T02:24:06.156Z,6.57
2022-08-11T02:26:37.729Z,2.22
2022-08-11T02:29:17.796Z,3.20
2022-08-11T02:32:29.926Z,6.30
2022-08-11T02:35:11.385Z,6.28
2022-08-11T02:37:52.328Z,7.32
2022-08-11T02:40:35.817Z,6.65
2022-08-11T02:43:15.354Z,8.40
2022-08-11T02:45:55.863Z,5.68
2022-08-11T02:48:58.844Z,5.43
2022-08-11T02:51:39.038Z,6.18
2022-08-11T02:54:16.358Z,6.22
2022-08-11T02:56:58.304Z,7.55
2022-08-11T02:59:52.302Z,5.65
2022-08-11T03:02:53.371Z,10.32
2022-08-11T03:08:51.461Z,7.40
2022-08-11T03:11:51.077Z,9.18
2022-08-11T03:14:45.882Z,6.28
2022-08-11T03:17:29.635Z,9.27
2022-08-11T03:20:24.998Z,5.70
2022-08-11T03:23:25.571Z,9.55
2022-08-11T03:26:01.949Z,7.10
2022-08-11T03:28:36.258Z,6.25
2022-08-11T03:31:25.286Z,4.78
2022-08-11T03:34:06.788Z,6.63
2022-08-11T03:37:17.151Z,3.97
2022-08-11T03:40:00.942Z,4.88
2022-08-11T03:42:41.424Z,4.40
2022-08-11T03:45:23.319Z,7.45
2022-08-11T03:48:15.372Z,5.00
2022-08-11T03:50:57.192Z,5.03
2022-08-11T03:53:49.427Z,3.55
2022-08-11T03:57:19.659Z,4.90
2022-08-11T04:00:16.188Z,8.43
2022-08-11T04:03:37.142Z,3.60
2022-08-11T04:06:38.242Z,5.45
2022-08-11T04:10:08.938Z,7.18
2022-08-11T04:13:16.721Z,4.18
2022-08-11T04:16:16.967Z,7.68
2022-08-11T04:19:31.105Z,5.85
2022-08-11T04:22:44.734Z,7.38
2022-08-11T04:25:57.444Z,3.72
2022-08-11T04:29:02.578Z,4.07
2022-08-11T04:31:44.277Z,2.55
2022-08-11T04:34:42.558Z,7.60
2022-08-11T04:37:39.207Z,2.70
2022-08-11T04:41:08.867Z,4.38
2022-08-11T04:44:31.899Z,6.30
2022-08-11T04:47:59.740Z,6.00
2022-08-11T04:51:16.341Z,5.78
2022-08-11T04:54:17.900Z,7.55
2022-08-11T04:57:07.405Z,3.57
2022-08-11T05:00:23.081Z,5.40
2022-08-11T05:03:44.684Z,3.70
2022-08-11T05:09:41.043Z,5.20
2022-08-11T05:12:30.985Z,3.60
2022-08-11T05:15:18.623Z,3.60
2022-08-11T05:18:16.867Z,3.55
2022-08-11T05:21:09.127Z,3.92
2022-08-11T05:24:06.410Z,2.17
2022-08-11T05:27:04.133Z,2.67
2022-08-11T05:30:01.273Z,6.32
2022-08-11T05:32:58.046Z,4.68
2022-08-11T05:36:02.338Z,4.45
2022-08-11T05:38:44.302Z,1.95
2022-08-11T05:41:33.203Z,2.78
2022-08-11T05:44:22.474Z,2.55
2022-08-11T05:47:09.493Z,7.28
2022-08-11T05:49:56.757Z,2.92
2022-08-11T05:52:49.196Z,3.30
2022-08-11T05:56:02.441Z,3.15
2022-08-11T05:58:42.965Z,2.78
2022-08-11T06:01:14.310Z,2.22
2022-08-11T06:04:04.445Z,18.70
2022-08-11T06:06:33.071Z,2.67
2022-08-11T06:09:02.839Z,1.98
2022-08-11T06:11:43.955Z,2.22
2022-08-11T06:14:16.490Z,8.52
2022-08-11T06:16:48.735Z,2.05
2022-08-11T06:19:17.969Z,8.88
2022-08-11T06:21:48.031Z,3.30
2022-08-11T06:24:17.577Z,1.42
2022-08-11T06:29:54.970Z,3.47
2022-08-11T06:32:28.571Z,1.88
2022-08-11T06:35:21.000Z,1.95
2022-08-11T06:38:09.512Z,5.28
2022-08-11T06:41:05.099Z,1.95
2022-08-11T06:43:55.741Z,4.35
2022-08-11T06:46:31.391Z,3.75
2022-08-11T06:49:03.434Z,7.03
2022-08-11T06:51:32.589Z,2.15
2022-08-11T06:54:05.521Z,6.03
2022-08-11T07:00:02.130Z,5.05
2022-08-11T07:02:35.101Z,2.97
2022-08-11T07:05:09.724Z,2.25
2022-08-11T07:08:44.538Z,2.85
2022-08-11T07:11:52.673Z,1.95
2022-08-11T07:14:43.695Z,2.47
2022-08-11T07:17:19.270Z,2.17
2022-08-11T07:20:12.677Z,2.15
2022-08-11T07:23:05.400Z,2.22
2022-08-11T07:25:55.163Z,3.15
2022-08-11T07:28:44.234Z,2.20
2022-08-11T07:31:15.829Z,3.95
2022-08-11T07:34:07.921Z,2.97
2022-08-11T07:36:44.045Z,1.85
2022-08-11T07:39:18.205Z,2.13
2022-08-11T07:41:48.977Z,4.05
2022-08-11T07:47:06.562Z,4.63
2022-08-11T07:49:56.583Z,2.55
2022-08-11T07:52:32.435Z,4.83
2022-08-11T07:55:03.581Z,5.38
2022-08-11T07:58:13.920Z,1.70
2022-08-11T08:01:09.880Z,3.45
2022-08-11T08:04:07.557Z,2.65
2022-08-11T08:06:54.716Z,6.90
2022-08-11T08:09:42.497Z,2.10
2022-08-11T08:12:29.664Z,3.10
2022-08-11T08:15:16.359Z,2.17
2022-08-11T08:18:09.476Z,3.70
2022-08-11T08:20:50.735Z,3.00
2022-08-11T08:23:33.056Z,7.95
2022-08-11T08:26:26.736Z,2.83
2022-08-11T08:28:55.885Z,4.78
2022-08-11T08:31:23.517Z,3.55
2022-08-11T08:33:52.766Z,2.28
2022-08-11T08:36:25.566Z,5.97
2022-08-11T08:38:55.220Z,4.10
2022-08-11T08:41:29.792Z,3.28
2022-08-11T08:44:21.103Z,2.80
2022-08-11T08:49:25.086Z,2.47
2022-08-11T08:52:01.868Z,7.35
2022-08-11T08:54:47.306Z,3.10
2022-08-11T08:57:20.025Z,3.90
2022-08-11T08:59:51.495Z,5.45
2022-08-11T09:02:33.803Z,1.80
2022-08-11T09:05:05.237Z,2.47
2022-08-11T09:07:39.410Z,2.42
2022-08-11T09:10:11.434Z,5.05
2022-08-11T09:12:43.578Z,2.65
2022-08-11T09:15:14.126Z,1.75
2022-08-11T09:17:47.739Z,5.57
2022-08-11T09:20:19.943Z,1.95
2022-08-11T09:24:06.484Z,6.90
2022-08-11T09:26:16.593Z,2.55
2022-08-11T09:28:48.973Z,2.28
2022-08-11T09:31:18.318Z,1.92
2022-08-11T09:33:55.947Z,1.52
2022-08-11T09:36:42.061Z,3.25
2022-08-11T09:39:31.157Z,3.85
2022-08-11T09:42:03.417Z,2.03
2022-08-11T09:44:48.709Z,2.40
2022-08-11T09:47:24.484Z,2.65
2022-08-11T09:49:59.843Z,3.40
2022-08-11T09:52:30.424Z,1.65
2022-08-11T09:54:59.444Z,1.63
2022-08-11T09:57:45.924Z,3.35
2022-08-11T10:00:17.499Z,4.65
2022-08-11T10:02:48.734Z,2.13
2022-08-11T10:05:38.014Z,3.67
2022-08-11T10:08:09.313Z,3.17
2022-08-11T10:10:39.830Z,1.23
2022-08-11T10:16:15.728Z,1.23
2022-08-11T10:18:53.603Z,1.33
2022-08-11T10:21:36.963Z,1.70
2022-08-11T10:24:25.438Z,2.30
2022-08-11T10:27:00.354Z,1.80
2022-08-11T10:29:52.062Z,5.22
2022-08-11T10:32:49.337Z,1.52
2022-08-11T10:35:27.907Z,1.30
2022-08-11T10:38:07.306Z,1.95
2022-08-11T10:40:40.348Z,1.33
2022-08-11T10:43:13.745Z,1.48
2022-08-11T10:46:03.736Z,1.13
2022-08-11T10:48:38.849Z,1.20
2022-08-11T10:51:13.934Z,1.20
2022-08-11T10:54:03.255Z,1.77
2022-08-11T10:56:54.199Z,0.93
2022-08-11T10:59:24.314Z,1.13
2022-08-11T11:01:54.602Z,5.88
2022-08-11T11:07:07.263Z,2.13
2022-08-11T11:09:44.050Z,0.60
2022-08-11T11:12:34.971Z,2.67
2022-08-11T11:15:21.985Z,2.80
2022-08-11T11:17:57.051Z,9.05
2022-08-11T11:20:37.221Z,63.38
2022-08-11T11:23:12.816Z,1.55
2022-08-11T11:26:31.252Z,1.73
2022-08-11T11:29:30.000Z,1.42
2022-08-11T11:32:19.825Z,3.55
2022-08-11T11:35:34.903Z,5.65
2022-08-11T11:38:06.170Z,1.58
2022-08-11T11:40:37.569Z,1.45
2022-08-11T11:43:07.189Z,2.05
2022-08-11T11:45:35.601Z,1.08
2022-08-11T11:48:05.029Z,2.05
2022-08-11T11:50:38.306Z,1.67
2022-08-11T11:53:11.182Z,1.27
2022-08-11T11:55:39.964Z,1.80
2022-08-11T11:58:26.039Z,1.60
2022-08-11T12:01:12.648Z,6.03
2022-08-11T12:03:42.116Z,2.58
2022-08-11T12:06:15.529Z,1.85
2022-08-11T12:08:45.437Z,2.45
2022-08-11T12:11:32.211Z,2.92
2022-08-11T12:14:04.754Z,1.70
2022-08-11T12:16:42.403Z,2.13
2022-08-11T12:19:13.677Z,1.15
2022-08-11T12:22:01.318Z,2.08
2022-08-11T12:24:47.696Z,1.25
2022-08-11T12:27:24.252Z,1.23
2022-08-11T12:29:59.442Z,1.38
2022-08-11T12:32:32.214Z,2.17
2022-08-11T12:35:01.491Z,3.50
2022-08-11T12:37:34.173Z,2.72
2022-08-11T12:40:43.475Z,1.88
2022-08-11T12:43:39.651Z,1.60
2022-08-11T12:46:15.497Z,1.65
2022-08-11T12:49:05.270Z,1.48
2022-08-11T12:52:13.399Z,2.15
2022-08-11T12:54:57.372Z,7.28
2022-08-11T12:57:50.180Z,1.77
2022-08-11T13:00:37.768Z,6.68
2022-08-11T13:03:27.609Z,4.55
2022-08-11T13:05:59.927Z,2.35
2022-08-11T13:08:30.745Z,2.28
2022-08-11T13:11:20.191Z,1.75
2022-08-11T13:13:57.209Z,2.15
2022-08-11T13:16:30.517Z,1.75
2022-08-11T13:19:01.348Z,2.58
2022-08-11T13:21:30.636Z,2.03
2022-08-11T13:24:02.755Z,1.80
2022-08-11T13:26:47.829Z,1.63
2022-08-11T13:29:24.492Z,1.58
2022-08-11T13:31:54.802Z,4.10
2022-08-11T13:36:57.229Z,4.88
2022-08-11T13:39:28.390Z,2.63
2022-08-11T13:42:00.433Z,1.77
2022-08-11T13:44:32.126Z,0.95
2022-08-11T13:47:04.117Z,1.73
2022-08-11T13:49:33.638Z,1.42
2022-08-11T13:52:02.683Z,3.45
2022-08-11T13:54:33.709Z,1.92
2022-08-11T13:57:08.121Z,1.73
2022-08-11T13:59:49.978Z,2.65
2022-08-11T14:02:30.278Z,5.03
2022-08-11T14:05:04.890Z,3.05
2022-08-11T14:07:40.411Z,2.35
2022-08-11T14:10:11.298Z,2.00
2022-08-11T14:13:01.883Z,3.08
2022-08-11T14:15:35.422Z,1.75
2022-08-11T14:18:07.645Z,3.80
2022-08-11T14:20:59.786Z,3.20
2022-08-11T14:23:30.876Z,5.95
2022-08-11T14:26:13.646Z,1.23
2022-08-11T14:28:45.340Z,3.22
2022-08-11T14:31:16.056Z,1.13
2022-08-11T14:34:00.481Z,1.50
2022-08-11T14:36:34.174Z,1.70
2022-08-11T14:39:07.446Z,2.13
2022-08-11T14:42:11.801Z,1.63
2022-08-11T14:45:03.273Z,1.65
2022-08-11T14:47:35.052Z,2.22
2022-08-11T14:50:09.969Z,2.50
2022-08-11T14:52:48.865Z,1.35
2022-08-11T14:55:35.647Z,3.00
2022-08-11T14:58:04.737Z,1.85
2022-08-11T15:00:36.045Z,9.38
2022-08-11T15:03:12.111Z,1.38
2022-08-11T15:05:56.352Z,1.63
2022-08-11T15:08:46.601Z,1.58
2022-08-11T15:11:35.247Z,2.75
2022-08-11T15:14:07.502Z,79.30
2022-08-11T15:16:56.788Z,27.15
2022-08-11T15:19:37.528Z,4.28
2022-08-11T15:22:28.836Z,2.35
2022-08-11T15:24:59.535Z,1.42
2022-08-11T15:27:49.474Z,1.95
2022-08-11T15:30:36.139Z,3.13
2022-08-11T15:33:30.453Z,2.20
2022-08-11T15:36:16.573Z,1.20
2022-08-11T15:38:57.118Z,5.68
2022-08-11T15:41:54.310Z,2.67
2022-08-11T15:45:03.621Z,2.50
2022-08-11T15:47:41.622Z,1.58
2022-08-11T15:50:16.861Z,2.35
2022-08-11T15:52:54.418Z,11.25
2022-08-11T15:55:24.646Z,29.35
2022-08-11T15:58:12.769Z,23.80
2022-08-11T16:00:59.005Z,8.13
2022-08-11T16:04:07.618Z,3.67
2022-08-11T16:06:49.311Z,4.03
2022-08-11T16:09:25.106Z,2.13
2022-08-11T16:11:59.998Z,2.20
2022-08-11T16:14:46.587Z,1.80
2022-08-11T16:17:17.530Z,3.10
2022-08-11T16:19:48.068Z,2.15
2022-08-11T16:22:34.270Z,1.88
2022-08-11T16:27:01.359Z,1.25
2022-08-11T16:27:57.227Z,5.25
2022-08-11T16:30:26.276Z,2.00
2022-08-11T16:32:55.896Z,1.58
2022-08-11T16:35:44.068Z,1.17
2022-08-11T16:38:35.198Z,1.90
2022-08-11T16:41:11.407Z,1.80
2022-08-11T16:44:02.523Z,2.67
2022-08-11T16:46:49.669Z,1.40
2022-08-11T16:49:23.319Z,3.17
2022-08-11T16:51:51.927Z,1.63
2022-08-11T16:54:22.162Z,2.08
2022-08-11T16:56:56.105Z,2.63
2022-08-11T16:59:31.146Z,1.88
2022-08-11T17:02:04.357Z,1.20
2022-08-11T17:05:09.458Z,2.55
2022-08-11T17:08:01.306Z,2.08
2022-08-11T17:11:00.162Z,11.75
2022-08-11T17:13:39.699Z,1.65
2022-08-11T17:16:13.130Z,17.02
2022-08-11T17:18:55.910Z,23.58
2022-08-11T17:21:29.918Z,61.63
2022-08-11T17:24:06.402Z,29.35
2022-08-11T17:26:55.784Z,8.90
2022-08-11T17:29:28.827Z,2.78
2022-08-11T17:32:20.913Z,2.42
2022-08-11T17:35:08.837Z,1.33
2022-08-11T17:37:40.079Z,1.73
2022-08-11T17:40:13.355Z,1.73
2022-08-11T17:43:03.692Z,4.32
2022-08-11T17:45:50.357Z,0.98
2022-08-11T17:48:28.596Z,1.60
2022-08-11T17:51:00.293Z,1.42
2022-08-11T17:54:10.119Z,1.63
2022-08-11T17:56:55.886Z,0.95
2022-08-11T17:59:43.875Z,5.78
2022-08-11T18:02:37.312Z,5.70
2022-08-11T18:05:10.821Z,4.30
2022-08-11T18:08:00.446Z,2.33
2022-08-11T18:10:49.765Z,1.15
2022-08-11T18:13:38.677Z,2.45
2022-08-11T18:16:26.824Z,1.70
2022-08-11T18:19:13.464Z,2.90
2022-08-11T18:22:15.431Z,2.97
2022-08-11T18:25:09.158Z,1.50
2022-08-11T18:27:57.278Z,1.58
2022-08-11T18:30:44.243Z,1.38
2022-08-11T18:33:56.869Z,2.20
2022-08-11T18:36:42.859Z,1.90
2022-08-11T18:39:31.627Z,1.80
2022-08-11T18:42:29.260Z,1.10
2022-08-11T18:45:19.020Z,1.75
2022-08-11T18:48:11.495Z,1.65
2022-08-11T18:51:29.959Z,15.75
2022-08-11T18:54:12.262Z,54.30
2022-08-11T18:59:46.339Z,53.35
2022-08-11T19:02:33.826Z,132.32
2022-08-11T19:06:32.060Z,68.18
2022-08-11T19:08:49.299Z,28.38
2022-08-11T19:11:42.425Z,8.82
2022-08-11T19:14:31.165Z,8.50
2022-08-11T19:17:43.911Z,5.22
2022-08-11T19:20:29.442Z,3.17
2022-08-11T19:23:16.841Z,1.73
2022-08-11T19:26:05.496Z,3.08
2022-08-11T19:28:54.092Z,2.03
2022-08-11T19:31:44.310Z,2.70
2022-08-11T19:34:32.967Z,1.67
2022-08-11T19:37:23.703Z,1.65
2022-08-11T19:40:12.152Z,3.67
2022-08-11T19:43:00.902Z,5.00
2022-08-11T19:45:52.737Z,1.48
2022-08-11T19:48:40.163Z,3.97
2022-08-11T19:51:28.272Z,3.90
2022-08-11T19:54:15.344Z,30.60
2022-08-11T19:57:03.176Z,36.72
2022-08-11T19:59:52.418Z,20.15
2022-08-11T20:02:38.464Z,16.88
2022-08-11T20:05:26.317Z,22.38
2022-08-11T20:08:15.178Z,38.30
2022-08-11T20:11:03.441Z,8.55
2022-08-11T20:13:49.960Z,7.32
2022-08-11T20:16:39.366Z,2.45
2022-08-11T20:19:55.600Z,2.30
2022-08-11T20:22:35.013Z,1.08
2022-08-11T20:25:24.685Z,1.75
2022-08-11T20:28:12.028Z,1.65
2022-08-11T20:30:59.443Z,1.92
2022-08-11T20:33:46.367Z,2.28
2022-08-11T20:36:32.804Z,2.00
2022-08-11T20:39:19.683Z,1.65
2022-08-11T20:42:07.450Z,3.22
2022-08-11T20:44:56.348Z,2.03
2022-08-11T20:47:58.961Z,2.05
2022-08-11T20:50:49.097Z,1.85
2022-08-11T20:53:39.188Z,1.52
2022-08-11T20:56:28.956Z,1.73
2022-08-11T20:59:18.814Z,1.98
2022-08-11T21:02:10.042Z,2.72
2022-08-11T21:04:57.905Z,2.15
2022-08-11T21:07:56.937Z,2.13
2022-08-11T21:10:51.549Z,2.03
2022-08-11T21:13:41.113Z,2.05
2022-08-11T21:16:32.141Z,2.17
2022-08-11T21:20:00.361Z,1.55
2022-08-11T21:22:43.341Z,2.67
2022-08-11T21:25:48.429Z,6.93
2022-08-11T21:28:37.434Z,3.40
2022-08-11T21:31:24.456Z,2.15
2022-08-11T21:34:11.444Z,2.15
2022-08-11T21:36:58.950Z,1.70
2022-08-11T21:39:46.424Z,2.40
2022-08-11T21:42:34.545Z,8.65
2022-08-11T21:45:21.429Z,21.83
2022-08-11T21:48:07.743Z,100.03
2022-08-11T21:50:53.448Z,112.40
2022-08-11T21:53:40.016Z,23.67
2022-08-11T21:56:27.351Z,15.60
2022-08-11T21:59:16.688Z,4.55
2022-08-11T22:02:03.536Z,5.53
2022-08-11T22:04:50.814Z,2.53
2022-08-11T22:07:40.740Z,4.68
2022-08-11T22:10:40.461Z,2.63
2022-08-11T22:13:30.814Z,2.17
2022-08-11T22:16:18.628Z,2.03
2022-08-11T22:19:06.185Z,6.20
2022-08-11T22:22:00.997Z,2.25
2022-08-11T22:24:51.869Z,3.40
2022-08-11T22:27:37.684Z,1.58
2022-08-11T22:30:26.325Z,1.92
2022-08-11T22:33:16.867Z,2.75
2022-08-11T22:36:04.851Z,1.42
2022-08-11T22:38:53.022Z,2.47
2022-08-11T22:41:40.939Z,3.47
2022-08-11T22:44:26.891Z,1.80
2022-08-11T22:47:18.345Z,1.83
2022-08-11T22:50:10.945Z,3.65
2022-08-11T22:52:57.007Z,2.03
2022-08-11T22:55:43.469Z,2.28
2022-08-11T22:58:30.066Z,1.65
2022-08-11T23:01:17.133Z,1.42
2022-08-11T23:04:04.921Z,2.08
2022-08-11T23:06:53.828Z,1.10
2022-08-11T23:09:42.080Z,2.15
2022-08-11T23:12:28.434Z,1.67
2022-08-11T23:15:14.739Z,4.00
2022-08-11T23:18:00.941Z,2.38
2022-08-11T23:20:47.430Z,2.55
2022-08-11T23:23:36.594Z,1.83
2022-08-11T23:26:22.676Z,2.42
2022-08-11T23:29:08.666Z,2.00
2022-08-11T23:31:56.142Z,3.30
2022-08-11T23:35:04.190Z,1.25
2022-08-11T23:37:52.725Z,2.60
2022-08-11T23:40:39.985Z,2.70
2022-08-11T23:43:26.541Z,2.45
2022-08-11T23:46:12.117Z,2.20
2022-08-11T23:48:58.958Z,1.77
2022-08-11T23:51:46.915Z,1.80
2022-08-11T23:54:37.303Z,1.35
2022-08-11T23:57:25.187Z,2.72
